Robert G. Stone, Jr. — WDD4596 — position and weather

sailwx.info

Track history (hours):
 
Tides and Currents Weather Stations Pressure Air Temp Water Temp Dewpoint Dewpoint Depression Visibility Wind Speed Wind Dir Waves Ship Positions

Robert G. Stone, Jr.

Owner: Kirby Inland Marine, LP, Houston, TX. More information available from US FCC via Universal Licensing System and Coast Guard Vessel Documentation Center.

Last reported at 2015-Aug-30 23:16 UTC. Time now 2015-Sep-05 16:20 UTC.
Position N 29°21' W 094°49'.

Length 27 m; draft 3.1 m.

Type: Towing. MMSI: 367146780.

Date/timePositionNaut miles runAvg speedWind from/ knotsBaromVisibWave heightAir tempDewpointWater temp
2015-Aug-30 23:16N 29°21' W 094°49'208 5.0
2015-Aug-29 05:33N 29°32' W 090°51'5 5.3
2015-Aug-29 04:33N 29°33' W 090°45'3 3.3
2015-Aug-29 03:33N 29°35' W 090°43'2 2.5
2015-Aug-29 02:33N 29°36' W 090°40'3 3.4
2015-Aug-29 01:33N 29°35' W 090°36'11 5.4
2015-Aug-28 23:26N 29°34' W 090°23'31 3.8
2015-Aug-28 15:23N 29°55' W 089°58'1 0.3
2015-Aug-28 12:06N 29°55' W 089°57'0 0.0
2015-Aug-28 03:25N 29°55' W 089°57'0 0.0
2015-Aug-28 02:20N 29°55' W 089°57'0 0.0
2015-Aug-28 01:33N 29°55' W 089°57'0 0.0
2015-Aug-28 00:27N 29°55' W 089°57'1 0.2
2015-Aug-27 21:29N 29°55' W 089°58'  
Track history (hours):
 
Tides and Currents Weather Stations Pressure Air Temp Water Temp Dewpoint Dewpoint Depression Visibility Wind Speed Wind Dir Waves Ship Positions

Robert G. Stone, Jr.

Owner: Kirby Inland Marine, LP, Houston, TX. More information available from US FCC via Universal Licensing System and Coast Guard Vessel Documentation Center.

Last reported at 2015-Aug-30 23:16 UTC. Time now 2015-Sep-05 16:20 UTC.
Position N 29°21' W 094°49'.

Length 27 m; draft 3.1 m.

Type: Towing. MMSI: 367146780.

Date/timePositionNaut miles runAvg speedWind from/ knotsBaromVisibWave heightAir tempDewpointWater temp
2015-Aug-30 23:16N 29°21' W 094°49'208 5.0
2015-Aug-29 05:33N 29°32' W 090°51'5 5.3
2015-Aug-29 04:33N 29°33' W 090°45'3 3.3
2015-Aug-29 03:33N 29°35' W 090°43'2 2.5
2015-Aug-29 02:33N 29°36' W 090°40'3 3.4
2015-Aug-29 01:33N 29°35' W 090°36'11 5.4
2015-Aug-28 23:26N 29°34' W 090°23'31 3.8
2015-Aug-28 15:23N 29°55' W 089°58'1 0.3
2015-Aug-28 12:06N 29°55' W 089°57'0 0.0
2015-Aug-28 03:25N 29°55' W 089°57'0 0.0
2015-Aug-28 02:20N 29°55' W 089°57'0 0.0
2015-Aug-28 01:33N 29°55' W 089°57'0 0.0
2015-Aug-28 00:27N 29°55' W 089°57'1 0.2
2015-Aug-27 21:29N 29°55' W 089°58'  

Dump ship's entire track history